Terminal Aerodrome Forecast
Issued by NWS

Home | Current Version | Previous Version | Text Only | Print | Product List | Glossary On
Versions: 1 2 3 4 5 6 7 8 9 10 11 12 13 14
000
FTUS45 KCYS 102320
TAFAIA
TAF
KAIA 102320Z 1100/1124 29014KT P6SM FEW250
     FM110600 30015G25KT P6SM SCT200
     FM111600 33025G35KT P6SM BKN200=

USA.gov is the U.S. government's official web portal to all federal, state and local government web resources and services.